Mountain House, California
Current Conditions -  °F | °C
As of 4:53 PM on Saturday 25 Oct 2014 (Local Time) from KLVK Reporting Station
Few Clouds Few Clouds  
Wind Chill: 69°   Ceiling: Unl
Heat Index: 69°   Visibility: 10mi
Dew Point: 51°   Wind: 14mph
Humidity: 53%   Direction: 230°SW
Pressure: 30.06"   Gusts: NA
Location:  37.7582°N, 121.525°W
Report Text: KLVK 252353Z 23012KT 10SM FEW040 21/11 A3006 RMK AO2 SLP174 T02060106 10228 20189 55000 $
Loading
Personal Weather Stations






























Interactive Weather Map
Tropical Storm Tracking
New forecast layout! Learn more

10-Day Weather Forecast

Advertisements
Track Severe Weather on mobile